sensor_id;sensor_type;location;lat;lon;timestamp;P1;P2;P0
47810;PMS5003;33575;52.600;7.318;2023-03-01T00:00:16;20;20;
47810;PMS5003;33575;52.600;7.318;2023-03-01T00:02:46;24;23;
47810;PMS5003;33575;52.600;7.318;2023-03-01T00:05:16;25;23;
47810;PMS5003;33575;52.600;7.318;2023-03-01T00:07:46;24;21;
47810;PMS5003;33575;52.600;7.318;2023-03-01T00:10:16;26;23;
47810;PMS5003;33575;52.600;7.318;2023-03-01T00:12:47;26;23;
47810;PMS5003;33575;52.600;7.318;2023-03-01T00:15:17;25;22;
47810;PMS5003;33575;52.600;7.318;2023-03-01T00:17:48;24;23;
47810;PMS5003;33575;52.600;7.318;2023-03-01T00:20:19;23;22;
47810;PMS5003;33575;52.600;7.318;2023-03-01T00:22:49;21;21;
47810;PMS5003;33575;52.600;7.318;2023-03-01T00:25:19;32;27;
47810;PMS5003;33575;52.600;7.318;2023-03-01T00:27:50;23;21;
47810;PMS5003;33575;52.600;7.318;2023-03-01T00:30:20;27;26;
47810;PMS5003;33575;52.600;7.318;2023-03-01T00:32:51;27;24;
47810;PMS5003;33575;52.600;7.318;2023-03-01T00:35:21;25;24;
47810;PMS5003;33575;52.600;7.318;2023-03-01T00:37:51;27;25;
47810;PMS5003;33575;52.600;7.318;2023-03-01T00:40:22;27;25;
47810;PMS5003;33575;52.600;7.318;2023-03-01T00:42:52;27;24;
47810;PMS5003;33575;52.600;7.318;2023-03-01T00:45:22;25;24;
47810;PMS5003;33575;52.600;7.318;2023-03-01T00:47:53;25;24;
47810;PMS5003;33575;52.600;7.318;2023-03-01T00:50:24;25;25;
47810;PMS5003;33575;52.600;7.318;2023-03-01T00:52:54;28;25;
47810;PMS5003;33575;52.600;7.318;2023-03-01T00:55:24;24;21;
47810;PMS5003;33575;52.600;7.318;2023-03-01T00:57:54;25;24;
47810;PMS5003;33575;52.600;7.318;2023-03-01T01:00:25;30;30;
47810;PMS5003;33575;52.600;7.318;2023-03-01T01:02:55;26;25;
47810;PMS5003;33575;52.600;7.318;2023-03-01T01:05:26;26;25;
47810;PMS5003;33575;52.600;7.318;2023-03-01T01:07:56;21;21;
47810;PMS5003;33575;52.600;7.318;2023-03-01T01:10:27;26;25;
47810;PMS5003;33575;52.600;7.318;2023-03-01T01:12:58;24;23;
47810;PMS5003;33575;52.600;7.318;2023-03-01T01:15:28;22;22;
47810;PMS5003;33575;52.600;7.318;2023-03-01T01:17:58;30;24;
47810;PMS5003;33575;52.600;7.318;2023-03-01T01:20:29;23;22;
47810;PMS5003;33575;52.600;7.318;2023-03-01T01:22:59;25;20;
47810;PMS5003;33575;52.600;7.318;2023-03-01T01:25:29;23;22;
47810;PMS5003;33575;52.600;7.318;2023-03-01T01:28:00;28;26;
47810;PMS5003;33575;52.600;7.318;2023-03-01T01:30:30;24;23;
47810;PMS5003;33575;52.600;7.318;2023-03-01T01:33:00;22;22;
47810;PMS5003;33575;52.600;7.318;2023-03-01T01:35:31;24;22;
47810;PMS5003;33575;52.600;7.318;2023-03-01T01:38:01;23;23;
47810;PMS5003;33575;52.600;7.318;2023-03-01T01:40:32;25;23;
47810;PMS5003;33575;52.600;7.318;2023-03-01T01:43:02;28;25;
47810;PMS5003;33575;52.600;7.318;2023-03-01T01:45:34;25;22;
47810;PMS5003;33575;52.600;7.318;2023-03-01T01:48:04;30;25;
47810;PMS5003;33575;52.600;7.318;2023-03-01T01:50:34;24;23;
47810;PMS5003;33575;52.600;7.318;2023-03-01T01:53:05;26;22;
47810;PMS5003;33575;52.600;7.318;2023-03-01T01:55:34;30;30;
47810;PMS5003;33575;52.600;7.318;2023-03-01T01:58:05;30;23;
47810;PMS5003;33575;52.600;7.318;2023-03-01T02:00:36;22;22;
47810;PMS5003;33575;52.600;7.318;2023-03-01T02:03:08;22;21;
47810;PMS5003;33575;52.600;7.318;2023-03-01T02:05:39;28;26;
47810;PMS5003;33575;52.600;7.318;2023-03-01T02:08:08;23;22;
47810;PMS5003;33575;52.600;7.318;2023-03-01T02:10:38;30;29;
47810;PMS5003;33575;52.600;7.318;2023-03-01T02:13:09;24;24;
47810;PMS5003;33575;52.600;7.318;2023-03-01T02:15:40;24;23;
47810;PMS5003;33575;52.600;7.318;2023-03-01T02:18:14;23;22;
47810;PMS5003;33575;52.600;7.318;2023-03-01T02:20:44;30;27;
47810;PMS5003;33575;52.600;7.318;2023-03-01T02:23:11;28;25;
47810;PMS5003;33575;52.600;7.318;2023-03-01T02:25:44;25;24;
47810;PMS5003;33575;52.600;7.318;2023-03-01T02:30:43;23;23;
47810;PMS5003;33575;52.600;7.318;2023-03-01T02:33:13;30;27;
47810;PMS5003;33575;52.600;7.318;2023-03-01T02:35:43;28;25;
47810;PMS5003;33575;52.600;7.318;2023-03-01T02:38:14;29;28;
47810;PMS5003;33575;52.600;7.318;2023-03-01T02:40:44;27;23;
47810;PMS5003;33575;52.600;7.318;2023-03-01T02:43:14;26;25;
47810;PMS5003;33575;52.600;7.318;2023-03-01T02:45:48;28;26;
47810;PMS5003;33575;52.600;7.318;2023-03-01T02:48:15;25;25;
47810;PMS5003;33575;52.600;7.318;2023-03-01T02:50:52;27;27;
47810;PMS5003;33575;52.600;7.318;2023-03-01T02:53:17;29;28;
47810;PMS5003;33575;52.600;7.318;2023-03-01T02:55:47;28;26;
47810;PMS5003;33575;52.600;7.318;2023-03-01T02:58:18;22;22;
47810;PMS5003;33575;52.600;7.318;2023-03-01T03:00:49;26;23;
47810;PMS5003;33575;52.600;7.318;2023-03-01T03:03:19;26;25;
47810;PMS5003;33575;52.600;7.318;2023-03-01T03:05:49;25;25;
47810;PMS5003;33575;52.600;7.318;2023-03-01T03:08:20;27;27;
47810;PMS5003;33575;52.600;7.318;2023-03-01T03:10:50;27;26;
47810;PMS5003;33575;52.600;7.318;2023-03-01T03:13:20;21;21;
47810;PMS5003;33575;52.600;7.318;2023-03-01T03:15:51;31;26;
47810;PMS5003;33575;52.600;7.318;2023-03-01T03:18:22;27;25;
47810;PMS5003;33575;52.600;7.318;2023-03-01T03:20:52;27;25;
47810;PMS5003;33575;52.600;7.318;2023-03-01T03:23:23;26;25;
47810;PMS5003;33575;52.600;7.318;2023-03-01T03:25:53;22;21;
47810;PMS5003;33575;52.600;7.318;2023-03-01T03:28:24;29;28;
47810;PMS5003;33575;52.600;7.318;2023-03-01T03:30:54;25;24;
47810;PMS5003;33575;52.600;7.318;2023-03-01T03:33:25;24;24;
47810;PMS5003;33575;52.600;7.318;2023-03-01T03:35:56;26;26;
47810;PMS5003;33575;52.600;7.318;2023-03-01T03:38:26;26;24;
47810;PMS5003;33575;52.600;7.318;2023-03-01T03:41:00;23;22;
47810;PMS5003;33575;52.600;7.318;2023-03-01T03:43:26;22;22;
47810;PMS5003;33575;52.600;7.318;2023-03-01T03:45:58;33;31;
47810;PMS5003;33575;52.600;7.318;2023-03-01T03:48:28;21;20;
47810;PMS5003;33575;52.600;7.318;2023-03-01T03:50:58;20;20;
47810;PMS5003;33575;52.600;7.318;2023-03-01T03:53:28;23;21;
47810;PMS5003;33575;52.600;7.318;2023-03-01T03:55:59;29;26;
47810;PMS5003;33575;52.600;7.318;2023-03-01T03:58:29;21;20;
47810;PMS5003;33575;52.600;7.318;2023-03-01T04:01:00;21;19;
47810;PMS5003;33575;52.600;7.318;2023-03-01T04:03:31;21;21;
47810;PMS5003;33575;52.600;7.318;2023-03-01T04:06:01;24;21;
47810;PMS5003;33575;52.600;7.318;2023-03-01T04:08:31;21;21;
47810;PMS5003;33575;52.600;7.318;2023-03-01T04:11:02;20;20;
47810;PMS5003;33575;52.600;7.318;2023-03-01T04:13:32;24;23;
47810;PMS5003;33575;52.600;7.318;2023-03-01T04:16:03;21;20;
47810;PMS5003;33575;52.600;7.318;2023-03-01T04:18:33;22;18;
47810;PMS5003;33575;52.600;7.318;2023-03-01T04:21:04;23;19;
47810;PMS5003;33575;52.600;7.318;2023-03-01T04:23:34;22;19;
47810;PMS5003;33575;52.600;7.318;2023-03-01T04:26:05;23;20;
47810;PMS5003;33575;52.600;7.318;2023-03-01T04:28:36;22;20;
47810;PMS5003;33575;52.600;7.318;2023-03-01T04:31:09;20;19;
47810;PMS5003;33575;52.600;7.318;2023-03-01T04:33:36;24;23;
47810;PMS5003;33575;52.600;7.318;2023-03-01T04:36:06;28;27;
47810;PMS5003;33575;52.600;7.318;2023-03-01T04:38:37;26;23;
47810;PMS5003;33575;52.600;7.318;2023-03-01T04:41:07;25;23;
47810;PMS5003;33575;52.600;7.318;2023-03-01T04:43:37;28;27;
47810;PMS5003;33575;52.600;7.318;2023-03-01T04:46:08;23;21;
47810;PMS5003;33575;52.600;7.318;2023-03-01T04:48:38;27;26;
47810;PMS5003;33575;52.600;7.318;2023-03-01T04:51:08;29;28;
47810;PMS5003;33575;52.600;7.318;2023-03-01T04:53:39;27;25;
47810;PMS5003;33575;52.600;7.318;2023-03-01T04:56:09;26;25;
47810;PMS5003;33575;52.600;7.318;2023-03-01T04:58:39;27;25;
47810;PMS5003;33575;52.600;7.318;2023-03-01T05:01:10;25;24;
47810;PMS5003;33575;52.600;7.318;2023-03-01T05:03:44;29;27;
47810;PMS5003;33575;52.600;7.318;2023-03-01T05:06:11;31;30;
47810;PMS5003;33575;52.600;7.318;2023-03-01T05:08:41;38;37;
47810;PMS5003;33575;52.600;7.318;2023-03-01T05:11:11;36;34;
47810;PMS5003;33575;52.600;7.318;2023-03-01T05:13:42;36;35;
47810;PMS5003;33575;52.600;7.318;2023-03-01T05:16:13;42;39;
47810;PMS5003;33575;52.600;7.318;2023-03-01T05:18:44;38;37;
47810;PMS5003;33575;52.600;7.318;2023-03-01T05:21:14;37;36;
47810;PMS5003;33575;52.600;7.318;2023-03-01T05:23:45;30;30;
47810;PMS5003;33575;52.600;7.318;2023-03-01T05:26:21;29;29;
47810;PMS5003;33575;52.600;7.318;2023-03-01T05:28:46;30;28;
47810;PMS5003;33575;52.600;7.318;2023-03-01T05:31:17;28;28;
47810;PMS5003;33575;52.600;7.318;2023-03-01T05:33:47;32;30;
47810;PMS5003;33575;52.600;7.318;2023-03-01T05:36:18;33;32;
47810;PMS5003;33575;52.600;7.318;2023-03-01T05:38:48;30;28;
47810;PMS5003;33575;52.600;7.318;2023-03-01T05:41:19;31;28;
47810;PMS5003;33575;52.600;7.318;2023-03-01T05:43:49;30;28;
47810;PMS5003;33575;52.600;7.318;2023-03-01T05:46:20;30;28;
47810;PMS5003;33575;52.600;7.318;2023-03-01T05:48:50;29;26;
47810;PMS5003;33575;52.600;7.318;2023-03-01T05:51:20;34;31;
47810;PMS5003;33575;52.600;7.318;2023-03-01T05:53:51;38;35;
47810;PMS5003;33575;52.600;7.318;2023-03-01T05:56:21;35;32;
47810;PMS5003;33575;52.600;7.318;2023-03-01T05:58:51;36;32;
47810;PMS5003;33575;52.600;7.318;2023-03-01T06:01:21;32;29;
47810;PMS5003;33575;52.600;7.318;2023-03-01T06:03:52;35;33;
47810;PMS5003;33575;52.600;7.318;2023-03-01T06:06:23;29;27;
47810;PMS5003;33575;52.600;7.318;2023-03-01T06:08:54;34;33;
47810;PMS5003;33575;52.600;7.318;2023-03-01T06:11:24;35;30;
47810;PMS5003;33575;52.600;7.318;2023-03-01T06:13:54;32;32;
47810;PMS5003;33575;52.600;7.318;2023-03-01T06:16:24;30;30;
47810;PMS5003;33575;52.600;7.318;2023-03-01T06:18:55;38;35;
47810;PMS5003;33575;52.600;7.318;2023-03-01T06:21:25;29;29;
47810;PMS5003;33575;52.600;7.318;2023-03-01T06:23:55;30;28;
47810;PMS5003;33575;52.600;7.318;2023-03-01T06:26:26;35;33;
47810;PMS5003;33575;52.600;7.318;2023-03-01T06:28:56;50;44;
47810;PMS5003;33575;52.600;7.318;2023-03-01T06:31:26;45;43;
47810;PMS5003;33575;52.600;7.318;2023-03-01T06:33:56;46;43;
47810;PMS5003;33575;52.600;7.318;2023-03-01T06:36:27;44;40;
47810;PMS5003;33575;52.600;7.318;2023-03-01T06:38:57;46;44;
47810;PMS5003;33575;52.600;7.318;2023-03-01T06:41:28;50;46;
47810;PMS5003;33575;52.600;7.318;2023-03-01T06:43:58;60;50;
47810;PMS5003;33575;52.600;7.318;2023-03-01T06:46:28;47;45;
47810;PMS5003;33575;52.600;7.318;2023-03-01T06:48:58;48;42;
47810;PMS5003;33575;52.600;7.318;2023-03-01T06:51:29;42;42;
47810;PMS5003;33575;52.600;7.318;2023-03-01T06:54:02;37;36;
47810;PMS5003;33575;52.600;7.318;2023-03-01T06:56:30;41;37;
47810;PMS5003;33575;52.600;7.318;2023-03-01T06:59:00;41;35;
47810;PMS5003;33575;52.600;7.318;2023-03-01T07:01:30;36;34;
47810;PMS5003;33575;52.600;7.318;2023-03-01T07:04:01;39;37;
47810;PMS5003;33575;52.600;7.318;2023-03-01T07:06:33;41;38;
47810;PMS5003;33575;52.600;7.318;2023-03-01T07:09:03;44;35;
47810;PMS5003;33575;52.600;7.318;2023-03-01T07:11:33;36;33;
47810;PMS5003;33575;52.600;7.318;2023-03-01T07:14:04;44;42;
47810;PMS5003;33575;52.600;7.318;2023-03-01T07:16:35;33;32;
47810;PMS5003;33575;52.600;7.318;2023-03-01T07:19:04;42;39;
47810;PMS5003;33575;52.600;7.318;2023-03-01T07:21:34;38;36;
47810;PMS5003;33575;52.600;7.318;2023-03-01T07:24:06;40;40;
47810;PMS5003;33575;52.600;7.318;2023-03-01T07:26:35;34;32;
47810;PMS5003;33575;52.600;7.318;2023-03-01T07:29:06;44;40;
47810;PMS5003;33575;52.600;7.318;2023-03-01T07:31:36;50;46;
47810;PMS5003;33575;52.600;7.318;2023-03-01T07:34:06;52;48;
47810;PMS5003;33575;52.600;7.318;2023-03-01T07:36:37;54;51;
47810;PMS5003;33575;52.600;7.318;2023-03-01T07:39:07;59;54;
47810;PMS5003;33575;52.600;7.318;2023-03-01T07:41:37;60;55;
47810;PMS5003;33575;52.600;7.318;2023-03-01T07:44:07;53;50;
47810;PMS5003;33575;52.600;7.318;2023-03-01T07:46:38;60;56;
47810;PMS5003;33575;52.600;7.318;2023-03-01T07:49:08;131;122;
47810;PMS5003;33575;52.600;7.318;2023-03-01T07:51:38;228;199;
47810;PMS5003;33575;52.600;7.318;2023-03-01T07:54:08;87;73;
47810;PMS5003;33575;52.600;7.318;2023-03-01T07:56:39;56;52;
47810;PMS5003;33575;52.600;7.318;2023-03-01T07:59:10;39;37;
47810;PMS5003;33575;52.600;7.318;2023-03-01T08:01:40;47;40;
47810;PMS5003;33575;52.600;7.318;2023-03-01T08:04:10;42;41;
47810;PMS5003;33575;52.600;7.318;2023-03-01T08:06:41;41;38;
47810;PMS5003;33575;52.600;7.318;2023-03-01T08:09:12;44;42;
47810;PMS5003;33575;52.600;7.318;2023-03-01T08:11:42;36;35;
47810;PMS5003;33575;52.600;7.318;2023-03-01T08:14:13;45;43;
47810;PMS5003;33575;52.600;7.318;2023-03-01T08:16:43;41;40;
47810;PMS5003;33575;52.600;7.318;2023-03-01T08:19:14;43;36;
47810;PMS5003;33575;52.600;7.318;2023-03-01T08:21:44;40;37;
47810;PMS5003;33575;52.600;7.318;2023-03-01T08:24:15;49;42;
47810;PMS5003;33575;52.600;7.318;2023-03-01T08:26:46;44;43;
47810;PMS5003;33575;52.600;7.318;2023-03-01T08:29:16;46;41;
47810;PMS5003;33575;52.600;7.318;2023-03-01T08:31:47;40;39;
47810;PMS5003;33575;52.600;7.318;2023-03-01T08:34:18;47;41;
47810;PMS5003;33575;52.600;7.318;2023-03-01T08:36:49;44;43;
47810;PMS5003;33575;52.600;7.318;2023-03-01T08:39:19;47;44;
47810;PMS5003;33575;52.600;7.318;2023-03-01T08:41:49;42;39;
47810;PMS5003;33575;52.600;7.318;2023-03-01T08:44:19;44;43;
47810;PMS5003;33575;52.600;7.318;2023-03-01T08:46:49;46;45;
47810;PMS5003;33575;52.600;7.318;2023-03-01T08:49:20;38;35;
47810;PMS5003;33575;52.600;7.318;2023-03-01T08:51:50;38;38;
47810;PMS5003;33575;52.600;7.318;2023-03-01T08:54:21;42;38;
47810;PMS5003;33575;52.600;7.318;2023-03-01T08:56:51;39;37;
47810;PMS5003;33575;52.600;7.318;2023-03-01T08:59:21;44;42;
47810;PMS5003;33575;52.600;7.318;2023-03-01T09:01:52;44;42;
47810;PMS5003;33575;52.600;7.318;2023-03-01T09:04:23;42;38;
47810;PMS5003;33575;52.600;7.318;2023-03-01T09:06:53;36;35;
47810;PMS5003;33575;52.600;7.318;2023-03-01T09:09:23;32;30;
47810;PMS5003;33575;52.600;7.318;2023-03-01T09:11:54;38;34;
47810;PMS5003;33575;52.600;7.318;2023-03-01T09:14:24;32;31;
47810;PMS5003;33575;52.600;7.318;2023-03-01T09:16:55;34;33;
47810;PMS5003;33575;52.600;7.318;2023-03-01T09:19:28;27;25;
47810;PMS5003;33575;52.600;7.318;2023-03-01T09:21:56;29;28;
47810;PMS5003;33575;52.600;7.318;2023-03-01T09:24:26;27;25;
47810;PMS5003;33575;52.600;7.318;2023-03-01T09:26:56;26;26;
47810;PMS5003;33575;52.600;7.318;2023-03-01T09:29:27;23;22;
47810;PMS5003;33575;52.600;7.318;2023-03-01T09:31:58;23;23;
47810;PMS5003;33575;52.600;7.318;2023-03-01T09:34:28;22;19;
47810;PMS5003;33575;52.600;7.318;2023-03-01T09:36:58;25;25;
47810;PMS5003;33575;52.600;7.318;2023-03-01T09:39:28;18;17;
47810;PMS5003;33575;52.600;7.318;2023-03-01T09:41:59;17;16;
47810;PMS5003;33575;52.600;7.318;2023-03-01T09:44:31;16;15;
47810;PMS5003;33575;52.600;7.318;2023-03-01T09:46:59;18;18;
47810;PMS5003;33575;52.600;7.318;2023-03-01T09:49:30;16;16;
47810;PMS5003;33575;52.600;7.318;2023-03-01T09:52:03;16;15;
47810;PMS5003;33575;52.600;7.318;2023-03-01T09:54:31;14;14;
47810;PMS5003;33575;52.600;7.318;2023-03-01T09:57:06;13;12;
47810;PMS5003;33575;52.600;7.318;2023-03-01T09:59:34;15;14;
47810;PMS5003;33575;52.600;7.318;2023-03-01T10:02:05;14;13;
47810;PMS5003;33575;52.600;7.318;2023-03-01T10:04:40;13;13;
47810;PMS5003;33575;52.600;7.318;2023-03-01T10:07:15;14;13;
47810;PMS5003;33575;52.600;7.318;2023-03-01T10:09:36;15;15;
47810;PMS5003;33575;52.600;7.318;2023-03-01T10:12:07;13;13;
47810;PMS5003;33575;52.600;7.318;2023-03-01T10:14:38;14;13;
47810;PMS5003;33575;52.600;7.318;2023-03-01T10:17:19;17;15;
47810;PMS5003;33575;52.600;7.318;2023-03-01T10:19:39;12;12;
47810;PMS5003;33575;52.600;7.318;2023-03-01T10:22:11;13;12;
47810;PMS5003;33575;52.600;7.318;2023-03-01T10:24:39;16;15;
47810;PMS5003;33575;52.600;7.318;2023-03-01T10:27:12;13;12;
47810;PMS5003;33575;52.600;7.318;2023-03-01T10:29:43;14;14;
47810;PMS5003;33575;52.600;7.318;2023-03-01T10:32:12;17;16;
47810;PMS5003;33575;52.600;7.318;2023-03-01T10:34:43;11;11;
47810;PMS5003;33575;52.600;7.318;2023-03-01T10:37:14;11;10;
47810;PMS5003;33575;52.600;7.318;2023-03-01T10:42:19;12;11;
47810;PMS5003;33575;52.600;7.318;2023-03-01T10:44:46;14;13;
47810;PMS5003;33575;52.600;7.318;2023-03-01T10:47:17;12;11;
47810;PMS5003;33575;52.600;7.318;2023-03-01T10:52:18;16;13;
47810;PMS5003;33575;52.600;7.318;2023-03-01T10:54:51;10;10;
47810;PMS5003;33575;52.600;7.318;2023-03-01T10:59:51;13;13;
47810;PMS5003;33575;52.600;7.318;2023-03-01T11:02:25;10;10;
47810;PMS5003;33575;52.600;7.318;2023-03-01T11:07:20;13;12;
47810;PMS5003;33575;52.600;7.318;2023-03-01T11:09:51;13;13;
47810;PMS5003;33575;52.600;7.318;2023-03-01T11:12:21;15;13;
47810;PMS5003;33575;52.600;7.318;2023-03-01T11:14:52;13;12;
47810;PMS5003;33575;52.600;7.318;2023-03-01T11:17:24;14;12;
47810;PMS5003;33575;52.600;7.318;2023-03-01T11:20:00;14;13;
47810;PMS5003;33575;52.600;7.318;2023-03-01T11:22:24;13;13;
47810;PMS5003;33575;52.600;7.318;2023-03-01T11:24:59;15;12;
47810;PMS5003;33575;52.600;7.318;2023-03-01T11:27:25;16;15;
47810;PMS5003;33575;52.600;7.318;2023-03-01T11:29:57;14;14;
47810;PMS5003;33575;52.600;7.318;2023-03-01T11:32:27;16;13;
47810;PMS5003;33575;52.600;7.318;2023-03-01T11:34:57;16;15;
47810;PMS5003;33575;52.600;7.318;2023-03-01T11:37:31;15;14;
47810;PMS5003;33575;52.600;7.318;2023-03-01T11:39:59;15;15;
47810;PMS5003;33575;52.600;7.318;2023-03-01T11:42:31;15;15;
47810;PMS5003;33575;52.600;7.318;2023-03-01T11:44:59;17;16;
47810;PMS5003;33575;52.600;7.318;2023-03-01T11:47:33;16;15;
47810;PMS5003;33575;52.600;7.318;2023-03-01T11:50:03;12;11;
47810;PMS5003;33575;52.600;7.318;2023-03-01T11:52:35;14;14;
47810;PMS5003;33575;52.600;7.318;2023-03-01T11:55:07;13;13;
47810;PMS5003;33575;52.600;7.318;2023-03-01T11:57:43;17;15;
47810;PMS5003;33575;52.600;7.318;2023-03-01T12:05:10;18;15;
47810;PMS5003;33575;52.600;7.318;2023-03-01T12:07:36;20;18;
47810;PMS5003;33575;52.600;7.318;2023-03-01T12:10:20;14;13;
47810;PMS5003;33575;52.600;7.318;2023-03-01T12:12:39;14;14;
47810;PMS5003;33575;52.600;7.318;2023-03-01T12:15:11;14;12;
47810;PMS5003;33575;52.600;7.318;2023-03-01T12:17:41;16;16;
47810;PMS5003;33575;52.600;7.318;2023-03-01T12:20:11;17;16;
47810;PMS5003;33575;52.600;7.318;2023-03-01T12:22:38;17;16;
47810;PMS5003;33575;52.600;7.318;2023-03-01T12:27:44;13;12;
47810;PMS5003;33575;52.600;7.318;2023-03-01T12:32:43;14;14;
47810;PMS5003;33575;52.600;7.318;2023-03-01T12:35:14;17;15;
47810;PMS5003;33575;52.600;7.318;2023-03-01T12:37:47;12;12;
47810;PMS5003;33575;52.600;7.318;2023-03-01T12:40:19;15;14;
47810;PMS5003;33575;52.600;7.318;2023-03-01T12:42:43;22;19;
47810;PMS5003;33575;52.600;7.318;2023-03-01T12:45:20;17;14;
47810;PMS5003;33575;52.600;7.318;2023-03-01T12:47:51;13;13;
47810;PMS5003;33575;52.600;7.318;2023-03-01T12:50:16;15;15;
47810;PMS5003;33575;52.600;7.318;2023-03-01T12:52:46;18;17;
47810;PMS5003;33575;52.600;7.318;2023-03-01T12:55:19;13;13;
47810;PMS5003;33575;52.600;7.318;2023-03-01T12:57:46;17;16;
47810;PMS5003;33575;52.600;7.318;2023-03-01T13:00:21;14;14;
47810;PMS5003;33575;52.600;7.318;2023-03-01T13:02:48;14;14;
47810;PMS5003;33575;52.600;7.318;2023-03-01T13:05:20;20;16;
47810;PMS5003;33575;52.600;7.318;2023-03-01T13:07:50;17;16;
47810;PMS5003;33575;52.600;7.318;2023-03-01T13:10:21;16;15;
47810;PMS5003;33575;52.600;7.318;2023-03-01T13:12:51;15;15;
47810;PMS5003;33575;52.600;7.318;2023-03-01T13:17:51;17;17;
47810;PMS5003;33575;52.600;7.318;2023-03-01T13:20:24;16;15;
47810;PMS5003;33575;52.600;7.318;2023-03-01T13:25:28;16;16;
47810;PMS5003;33575;52.600;7.318;2023-03-01T13:27:54;15;13;
47810;PMS5003;33575;52.600;7.318;2023-03-01T13:37:59;15;15;
47810;PMS5003;33575;52.600;7.318;2023-03-01T13:45:33;25;22;
47810;PMS5003;33575;52.600;7.318;2023-03-01T13:48:01;16;15;
47810;PMS5003;33575;52.600;7.318;2023-03-01T13:50:31;18;15;
47810;PMS5003;33575;52.600;7.318;2023-03-01T13:53:00;18;17;
47810;PMS5003;33575;52.600;7.318;2023-03-01T13:55:35;15;15;
47810;PMS5003;33575;52.600;7.318;2023-03-01T13:58:02;14;13;
47810;PMS5003;33575;52.600;7.318;2023-03-01T14:00:35;15;14;
47810;PMS5003;33575;52.600;7.318;2023-03-01T14:03:11;12;12;
47810;PMS5003;33575;52.600;7.318;2023-03-01T14:05:34;15;15;
47810;PMS5003;33575;52.600;7.318;2023-03-01T14:08:05;17;16;
47810;PMS5003;33575;52.600;7.318;2023-03-01T14:10:36;15;14;
47810;PMS5003;33575;52.600;7.318;2023-03-01T14:13:17;19;16;
47810;PMS5003;33575;52.600;7.318;2023-03-01T14:15:37;17;16;
47810;PMS5003;33575;52.600;7.318;2023-03-01T14:18:07;23;21;
47810;PMS5003;33575;52.600;7.318;2023-03-01T14:20:38;21;20;
47810;PMS5003;33575;52.600;7.318;2023-03-01T14:23:09;19;19;
47810;PMS5003;33575;52.600;7.318;2023-03-01T14:25:38;17;16;
47810;PMS5003;33575;52.600;7.318;2023-03-01T14:28:13;17;16;
47810;PMS5003;33575;52.600;7.318;2023-03-01T14:30:41;14;14;
47810;PMS5003;33575;52.600;7.318;2023-03-01T14:35:40;15;15;
47810;PMS5003;33575;52.600;7.318;2023-03-01T14:38:19;15;14;
47810;PMS5003;33575;52.600;7.318;2023-03-01T14:40:41;15;15;
47810;PMS5003;33575;52.600;7.318;2023-03-01T14:43:13;18;15;
47810;PMS5003;33575;52.600;7.318;2023-03-01T14:45:42;16;16;
47810;PMS5003;33575;52.600;7.318;2023-03-01T14:48:12;15;13;
47810;PMS5003;33575;52.600;7.318;2023-03-01T14:50:43;15;14;
47810;PMS5003;33575;52.600;7.318;2023-03-01T14:53:16;18;14;
47810;PMS5003;33575;52.600;7.318;2023-03-01T14:55:44;18;17;
47810;PMS5003;33575;52.600;7.318;2023-03-01T14:58:16;14;14;
47810;PMS5003;33575;52.600;7.318;2023-03-01T15:00:47;19;18;
47810;PMS5003;33575;52.600;7.318;2023-03-01T15:03:17;18;16;
47810;PMS5003;33575;52.600;7.318;2023-03-01T15:05:46;20;19;
47810;PMS5003;33575;52.600;7.318;2023-03-01T15:08:17;21;20;
47810;PMS5003;33575;52.600;7.318;2023-03-01T15:13:21;14;14;
47810;PMS5003;33575;52.600;7.318;2023-03-01T15:15:48;15;14;
47810;PMS5003;33575;52.600;7.318;2023-03-01T15:18:20;16;15;
47810;PMS5003;33575;52.600;7.318;2023-03-01T15:20:50;18;15;
47810;PMS5003;33575;52.600;7.318;2023-03-01T15:23:22;20;19;
47810;PMS5003;33575;52.600;7.318;2023-03-01T15:25:51;19;18;
47810;PMS5003;33575;52.600;7.318;2023-03-01T15:28:22;15;13;
47810;PMS5003;33575;52.600;7.318;2023-03-01T15:30:53;17;15;
47810;PMS5003;33575;52.600;7.318;2023-03-01T15:35:55;16;15;
47810;PMS5003;33575;52.600;7.318;2023-03-01T15:38:29;14;11;
47810;PMS5003;33575;52.600;7.318;2023-03-01T15:40:54;21;18;
47810;PMS5003;33575;52.600;7.318;2023-03-01T15:45:56;17;15;
47810;PMS5003;33575;52.600;7.318;2023-03-01T15:48:26;20;19;
47810;PMS5003;33575;52.600;7.318;2023-03-01T15:50:56;18;18;
47810;PMS5003;33575;52.600;7.318;2023-03-01T15:53:26;18;17;
47810;PMS5003;33575;52.600;7.318;2023-03-01T15:55:57;18;17;
47810;PMS5003;33575;52.600;7.318;2023-03-01T15:58:27;17;16;
47810;PMS5003;33575;52.600;7.318;2023-03-01T16:01:02;23;22;
47810;PMS5003;33575;52.600;7.318;2023-03-01T16:03:28;20;19;
47810;PMS5003;33575;52.600;7.318;2023-03-01T16:05:59;17;16;
47810;PMS5003;33575;52.600;7.318;2023-03-01T16:08:29;22;21;
47810;PMS5003;33575;52.600;7.318;2023-03-01T16:11:00;19;17;
47810;PMS5003;33575;52.600;7.318;2023-03-01T16:13:31;19;19;
47810;PMS5003;33575;52.600;7.318;2023-03-01T16:16:01;22;22;
47810;PMS5003;33575;52.600;7.318;2023-03-01T16:18:32;27;24;
47810;PMS5003;33575;52.600;7.318;2023-03-01T16:21:03;18;17;
47810;PMS5003;33575;52.600;7.318;2023-03-01T16:23:33;19;18;
47810;PMS5003;33575;52.600;7.318;2023-03-01T16:26:03;24;22;
47810;PMS5003;33575;52.600;7.318;2023-03-01T16:28:34;24;21;
47810;PMS5003;33575;52.600;7.318;2023-03-01T16:31:04;28;25;
47810;PMS5003;33575;52.600;7.318;2023-03-01T16:33:35;25;23;
47810;PMS5003;33575;52.600;7.318;2023-03-01T16:36:07;25;23;
47810;PMS5003;33575;52.600;7.318;2023-03-01T16:38:35;31;27;
47810;PMS5003;33575;52.600;7.318;2023-03-01T16:41:06;28;25;
47810;PMS5003;33575;52.600;7.318;2023-03-01T16:43:36;23;23;
47810;PMS5003;33575;52.600;7.318;2023-03-01T16:46:10;29;26;
47810;PMS5003;33575;52.600;7.318;2023-03-01T16:48:37;31;29;
47810;PMS5003;33575;52.600;7.318;2023-03-01T16:51:08;28;27;
47810;PMS5003;33575;52.600;7.318;2023-03-01T16:53:38;30;29;
47810;PMS5003;33575;52.600;7.318;2023-03-01T16:56:10;38;31;
47810;PMS5003;33575;52.600;7.318;2023-03-01T16:58:39;33;32;
47810;PMS5003;33575;52.600;7.318;2023-03-01T17:01:11;27;27;
47810;PMS5003;33575;52.600;7.318;2023-03-01T17:03:40;27;25;
47810;PMS5003;33575;52.600;7.318;2023-03-01T17:06:12;24;23;
47810;PMS5003;33575;52.600;7.318;2023-03-01T17:08:41;31;27;
47810;PMS5003;33575;52.600;7.318;2023-03-01T17:11:12;30;28;
47810;PMS5003;33575;52.600;7.318;2023-03-01T17:13:41;32;28;
47810;PMS5003;33575;52.600;7.318;2023-03-01T17:16:13;26;25;
47810;PMS5003;33575;52.600;7.318;2023-03-01T17:18:43;31;30;
47810;PMS5003;33575;52.600;7.318;2023-03-01T17:21:13;30;27;
47810;PMS5003;33575;52.600;7.318;2023-03-01T17:23:44;28;28;
47810;PMS5003;33575;52.600;7.318;2023-03-01T17:26:14;29;27;